createdAt,value
2023-01-07T00:01:41.572Z,63.13
2023-01-07T00:04:11.655Z,62.78
2023-01-07T00:06:40.038Z,63.14
2023-01-07T00:09:10.016Z,62.70
2023-01-07T00:11:38.410Z,62.78
2023-01-07T00:14:07.485Z,63.14
2023-01-07T00:16:35.874Z,63.21
2023-01-07T00:19:04.289Z,63.07
2023-01-07T00:21:31.376Z,62.73
2023-01-07T00:24:00.503Z,62.80
2023-01-07T00:26:30.534Z,62.80
2023-01-07T00:28:57.664Z,62.95
2023-01-07T00:31:29.855Z,63.02
2023-01-07T00:33:56.896Z,62.83
2023-01-07T00:36:26.654Z,62.97
2023-01-07T00:39:01.985Z,63.18
2023-01-07T00:41:29.581Z,63.10
2023-01-07T00:43:56.444Z,62.72
2023-01-07T00:46:23.155Z,62.94
2023-01-07T00:48:50.365Z,63.13
2023-01-07T00:51:18.057Z,62.78
2023-01-07T00:53:44.996Z,63.02
2023-01-07T00:56:12.702Z,62.75
2023-01-07T00:58:39.279Z,62.73
2023-01-07T01:01:06.092Z,62.77
2023-01-07T01:03:33.782Z,62.71
2023-01-07T01:06:05.288Z,62.71
2023-01-07T01:08:32.083Z,62.90
2023-01-07T01:11:08.549Z,62.83
2023-01-07T01:13:35.405Z,62.60
2023-01-07T01:16:06.688Z,63.03
2023-01-07T01:18:33.276Z,62.98
2023-01-07T01:21:06.969Z,62.69
2023-01-07T01:23:35.966Z,62.54
2023-01-07T01:26:10.819Z,62.58
2023-01-07T01:28:38.006Z,62.64
2023-01-07T01:31:05.421Z,62.85
2023-01-07T01:33:42.281Z,62.57
2023-01-07T01:36:12.940Z,62.84
2023-01-07T01:38:40.402Z,62.94
2023-01-07T01:41:07.566Z,62.54
2023-01-07T01:43:39.663Z,62.87
2023-01-07T01:46:18.890Z,62.73
2023-01-07T01:48:52.828Z,62.68
2023-01-07T01:51:24.094Z,63.15
2023-01-07T01:53:52.031Z,62.71
2023-01-07T01:56:25.827Z,62.71
2023-01-07T01:58:58.321Z,63.07
2023-01-07T02:01:25.293Z,63.22
2023-01-07T02:03:52.940Z,63.07
2023-01-07T02:06:26.420Z,63.16
2023-01-07T02:08:54.659Z,63.14
2023-01-07T02:11:41.189Z,62.77
2023-01-07T02:14:20.948Z,63.19
2023-01-07T02:16:57.601Z,63.26
2023-01-07T02:19:46.832Z,63.13
2023-01-07T02:22:48.213Z,63.06
2023-01-07T02:25:58.347Z,63.31
2023-01-07T02:28:55.662Z,63.42
2023-01-07T02:31:25.002Z,63.00
2023-01-07T02:34:04.938Z,63.10
2023-01-07T02:36:46.979Z,63.43
2023-01-07T02:39:47.960Z,63.29
2023-01-07T02:42:43.512Z,63.37
2023-01-07T02:46:02.952Z,63.41
2023-01-07T02:48:31.792Z,63.36
2023-01-07T02:50:58.404Z,63.36
2023-01-07T02:53:25.306Z,63.48
2023-01-07T02:55:58.441Z,63.45
2023-01-07T02:58:41.955Z,63.36
2023-01-07T03:01:26.529Z,63.25
2023-01-07T03:04:05.437Z,63.49
2023-01-07T03:07:05.626Z,63.58
2023-01-07T03:09:51.175Z,63.23
2023-01-07T03:12:31.485Z,63.19
2023-01-07T03:15:07.837Z,63.40
2023-01-07T03:17:43.436Z,63.68
2023-01-07T03:20:12.957Z,63.29
2023-01-07T03:22:42.635Z,63.60
2023-01-07T03:25:12.944Z,63.47
2023-01-07T03:27:41.424Z,63.35
2023-01-07T03:30:13.558Z,63.55
2023-01-07T03:32:49.536Z,63.50
2023-01-07T03:35:18.713Z,63.43
2023-01-07T03:37:46.879Z,63.28
2023-01-07T03:40:13.796Z,63.49
2023-01-07T03:42:41.887Z,63.34
2023-01-07T03:45:37.757Z,63.41
2023-01-07T03:48:04.818Z,63.41
2023-01-07T03:50:36.506Z,63.42
2023-01-07T03:53:03.878Z,63.65
2023-01-07T03:55:33.806Z,63.71
2023-01-07T03:58:00.784Z,63.55
2023-01-07T04:00:27.507Z,63.54
2023-01-07T04:03:02.340Z,63.56
2023-01-07T04:05:36.656Z,63.37
2023-01-07T04:08:03.299Z,63.46
2023-01-07T04:10:33.621Z,63.53
2023-01-07T04:13:00.297Z,63.68
2023-01-07T04:15:26.885Z,63.59
2023-01-07T04:17:53.606Z,63.29
2023-01-07T04:20:20.464Z,63.53
2023-01-07T04:22:46.979Z,63.40
2023-01-07T04:25:13.773Z,63.32
2023-01-07T04:27:40.443Z,63.32
2023-01-07T04:30:09.117Z,63.76
2023-01-07T04:32:35.699Z,63.56
2023-01-07T04:35:02.301Z,63.79
2023-01-07T04:37:30.023Z,63.71
2023-01-07T04:39:57.149Z,63.71
2023-01-07T04:42:23.736Z,63.69
2023-01-07T04:44:50.312Z,63.59
2023-01-07T04:47:16.853Z,63.48
2023-01-07T04:49:43.429Z,63.30
2023-01-07T04:52:10.202Z,63.64
2023-01-07T04:54:38.069Z,63.27
2023-01-07T04:57:04.643Z,63.34
2023-01-07T04:59:31.257Z,63.52
2023-01-07T05:02:00.289Z,63.29
2023-01-07T05:04:27.113Z,63.48
2023-01-07T05:06:54.454Z,63.30
2023-01-07T05:09:23.539Z,63.30
2023-01-07T05:11:50.486Z,63.41
2023-01-07T05:14:17.677Z,63.08
2023-01-07T05:16:44.938Z,62.99
2023-01-07T05:19:11.847Z,63.00
2023-01-07T05:21:42.739Z,63.34
2023-01-07T05:24:10.784Z,63.01
2023-01-07T05:26:37.270Z,63.18
2023-01-07T05:29:04.223Z,62.89
2023-01-07T05:31:32.103Z,63.00
2023-01-07T05:33:58.785Z,63.30
2023-01-07T05:36:26.329Z,63.15
2023-01-07T05:38:53.971Z,63.48
2023-01-07T05:41:20.681Z,63.39
2023-01-07T05:43:47.321Z,63.14
2023-01-07T05:46:14.275Z,63.43
2023-01-07T05:48:41.168Z,63.10
2023-01-07T05:51:07.758Z,63.29
2023-01-07T05:53:34.410Z,63.27
2023-01-07T05:56:01.510Z,63.24
2023-01-07T05:58:28.594Z,63.47
2023-01-07T06:00:55.465Z,63.01
2023-01-07T06:03:22.555Z,62.87
2023-01-07T06:05:49.216Z,63.20
2023-01-07T06:08:16.106Z,62.80
2023-01-07T06:10:44.241Z,63.11
2023-01-07T06:13:10.835Z,63.10
2023-01-07T06:15:37.451Z,63.06
2023-01-07T06:18:04.099Z,63.01
2023-01-07T06:20:34.481Z,62.70
2023-01-07T06:23:03.123Z,62.64
2023-01-07T06:25:29.809Z,62.68
2023-01-07T06:27:58.142Z,62.61
2023-01-07T06:30:24.864Z,62.45
2023-01-07T06:32:51.395Z,62.67
2023-01-07T06:35:18.018Z,62.38
2023-01-07T06:37:44.583Z,62.22
2023-01-07T06:40:12.015Z,62.25
2023-01-07T06:42:38.592Z,62.43
2023-01-07T06:45:05.583Z,62.32
2023-01-07T06:47:32.182Z,61.96
2023-01-07T06:49:58.698Z,62.24
2023-01-07T06:52:25.254Z,62.15
2023-01-07T06:54:51.867Z,61.94
2023-01-07T06:57:22.466Z,61.90
2023-01-07T06:59:48.986Z,62.03
2023-01-07T07:02:24.157Z,61.60
2023-01-07T07:04:50.702Z,62.06
2023-01-07T07:07:17.506Z,61.95
2023-01-07T07:09:44.671Z,61.54
2023-01-07T07:12:11.835Z,61.26
2023-01-07T07:14:39.027Z,61.29
2023-01-07T07:17:06.325Z,61.51
2023-01-07T07:19:32.963Z,61.39
2023-01-07T07:21:59.475Z,61.40
2023-01-07T07:24:26.028Z,61.47
2023-01-07T07:26:52.513Z,61.25
2023-01-07T07:29:21.607Z,61.13
2023-01-07T07:31:48.375Z,60.91
2023-01-07T07:34:14.876Z,60.89
2023-01-07T07:36:41.398Z,61.22
2023-01-07T07:39:08.060Z,61.04
2023-01-07T07:41:34.608Z,60.86
2023-01-07T07:44:06.872Z,60.95
2023-01-07T07:46:33.857Z,61.03
2023-01-07T07:49:00.462Z,60.97
2023-01-07T07:51:27.135Z,60.58
2023-01-07T07:53:53.626Z,60.70
2023-01-07T07:56:20.238Z,60.53
2023-01-07T07:58:46.878Z,60.49
2023-01-07T08:01:13.550Z,60.59
2023-01-07T08:03:40.154Z,60.86
2023-01-07T08:06:07.180Z,60.70
2023-01-07T08:08:33.930Z,60.72
2023-01-07T08:11:00.419Z,60.41
2023-01-07T08:13:26.947Z,60.57
2023-01-07T08:15:53.561Z,60.61
2023-01-07T08:18:20.178Z,60.42
2023-01-07T08:20:47.239Z,60.62
2023-01-07T08:23:13.986Z,60.23
2023-01-07T08:25:40.605Z,60.21
2023-01-07T08:28:07.137Z,60.40
2023-01-07T08:30:33.698Z,60.48
2023-01-07T08:33:00.397Z,60.12
2023-01-07T08:35:27.013Z,60.28
2023-01-07T08:38:00.979Z,59.97
2023-01-07T08:40:27.478Z,60.26
2023-01-07T08:42:57.995Z,60.21
2023-01-07T08:45:24.604Z,60.21
2023-01-07T08:47:51.327Z,59.85
2023-01-07T08:50:20.158Z,59.77
2023-01-07T08:52:47.391Z,59.67
2023-01-07T08:55:14.068Z,59.76
2023-01-07T08:57:40.602Z,60.07
2023-01-07T09:00:07.780Z,59.83
2023-01-07T09:03:02.548Z,59.69
2023-01-07T09:05:29.348Z,59.39
2023-01-07T09:07:56.955Z,59.50
2023-01-07T09:10:24.214Z,59.31
2023-01-07T09:12:50.809Z,59.57
2023-01-07T09:15:17.589Z,59.45
2023-01-07T09:17:44.108Z,59.70
2023-01-07T09:20:10.745Z,59.18
2023-01-07T09:22:37.735Z,59.13
2023-01-07T09:25:06.080Z,59.42
2023-01-07T09:27:32.910Z,59.33
2023-01-07T09:29:59.463Z,59.25
2023-01-07T09:32:26.477Z,59.10
2023-01-07T09:34:53.153Z,58.72
2023-01-07T09:37:19.862Z,58.97
2023-01-07T09:39:46.342Z,58.77
2023-01-07T09:42:12.822Z,58.78
2023-01-07T09:45:08.150Z,58.47
2023-01-07T09:47:37.148Z,58.64
2023-01-07T09:50:14.586Z,58.46
2023-01-07T09:52:48.926Z,58.35
2023-01-07T09:55:21.064Z,58.55
2023-01-07T09:57:48.029Z,58.51
2023-01-07T10:00:22.258Z,58.26
2023-01-07T10:02:51.838Z,58.21
2023-01-07T10:05:18.336Z,58.28
2023-01-07T10:07:50.818Z,58.30
2023-01-07T10:10:26.453Z,58.14
2023-01-07T10:13:05.005Z,58.12
2023-01-07T10:15:47.119Z,58.23
2023-01-07T10:18:41.585Z,57.73
2023-01-07T10:21:27.529Z,58.03
2023-01-07T10:24:05.338Z,58.10
2023-01-07T10:26:39.306Z,58.01
2023-01-07T10:29:16.718Z,57.91
2023-01-07T10:31:45.616Z,57.68
2023-01-07T10:34:28.987Z,56.92
2023-01-07T10:37:27.601Z,57.27
2023-01-07T10:40:12.446Z,56.99
2023-01-07T10:43:13.210Z,56.35
2023-01-07T10:45:54.963Z,56.51
2023-01-07T10:48:48.934Z,56.50
2023-01-07T10:51:44.914Z,56.15
2023-01-07T10:54:29.445Z,55.97
2023-01-07T10:57:03.577Z,55.99
2023-01-07T10:59:30.487Z,55.32
2023-01-07T11:01:59.414Z,55.15
2023-01-07T11:04:26.542Z,54.70
2023-01-07T11:07:04.552Z,54.73
2023-01-07T11:09:35.305Z,54.61
2023-01-07T11:12:26.374Z,54.58
2023-01-07T11:14:56.685Z,54.68
2023-01-07T11:17:35.808Z,54.51
2023-01-07T11:20:04.300Z,54.37
2023-01-07T11:22:33.893Z,54.10
2023-01-07T11:25:02.528Z,54.44
2023-01-07T11:27:31.882Z,54.07
2023-01-07T11:30:20.012Z,54.07
2023-01-07T11:32:56.705Z,53.61
2023-01-07T11:35:23.729Z,53.81
2023-01-07T11:37:50.672Z,53.81
2023-01-07T11:40:22.171Z,53.61
2023-01-07T11:43:02.131Z,53.92
2023-01-07T11:45:33.031Z,53.71
2023-01-07T11:48:09.310Z,53.08
2023-01-07T11:50:41.827Z,52.80
2023-01-07T11:53:14.179Z,52.42
2023-01-07T11:55:57.104Z,52.20
2023-01-07T11:58:30.898Z,52.72
2023-01-07T12:01:13.161Z,52.35
2023-01-07T12:03:43.573Z,52.48
2023-01-07T12:06:24.416Z,52.36
2023-01-07T12:09:18.959Z,52.03
2023-01-07T12:11:45.999Z,51.92
2023-01-07T12:14:38.908Z,52.13
2023-01-07T12:17:17.606Z,51.79
2023-01-07T12:20:05.830Z,51.83
2023-01-07T12:22:41.041Z,51.90
2023-01-07T12:25:35.569Z,51.34
2023-01-07T12:28:06.925Z,51.38
2023-01-07T12:30:40.603Z,51.53
2023-01-07T12:33:17.672Z,51.48
2023-01-07T12:35:45.587Z,51.38
2023-01-07T12:38:14.797Z,51.18
2023-01-07T12:41:11.641Z,50.99
2023-01-07T12:44:03.206Z,50.83
2023-01-07T12:46:40.506Z,50.83
2023-01-07T12:49:15.018Z,51.04
2023-01-07T12:51:47.898Z,50.82
2023-01-07T12:54:16.849Z,50.83
2023-01-07T12:56:53.545Z,50.89
2023-01-07T12:59:45.700Z,50.64
2023-01-07T13:02:17.422Z,50.90
2023-01-07T13:04:49.769Z,50.92
2023-01-07T13:07:37.429Z,51.03
2023-01-07T13:10:12.915Z,50.55
2023-01-07T13:12:48.610Z,50.65
2023-01-07T13:15:26.841Z,50.67
2023-01-07T13:18:10.722Z,50.63
2023-01-07T13:21:04.728Z,50.03
2023-01-07T13:24:07.359Z,50.46
2023-01-07T13:26:43.061Z,50.35
2023-01-07T13:29:44.598Z,50.59
2023-01-07T13:32:34.167Z,50.75
2023-01-07T13:35:35.537Z,50.68
2023-01-07T13:38:12.974Z,50.74
2023-01-07T13:40:58.467Z,50.79
2023-01-07T13:43:49.426Z,50.74
2023-01-07T13:46:24.952Z,50.54
2023-01-07T13:48:54.187Z,50.79
2023-01-07T13:51:30.806Z,50.42
2023-01-07T13:53:57.872Z,50.93
2023-01-07T13:56:24.396Z,50.92
2023-01-07T13:58:58.036Z,50.43
2023-01-07T14:01:25.576Z,50.71
2023-01-07T14:03:53.512Z,51.12
2023-01-07T14:06:20.409Z,50.90
2023-01-07T14:08:51.392Z,51.06
2023-01-07T14:11:20.028Z,51.01
2023-01-07T14:14:01.814Z,50.76
2023-01-07T14:16:41.307Z,51.17
2023-01-07T14:19:31.815Z,51.12
2023-01-07T14:22:26.525Z,50.89
2023-01-07T14:25:07.931Z,51.25
2023-01-07T14:27:53.355Z,51.32
2023-01-07T14:30:23.513Z,51.27
2023-01-07T14:33:17.771Z,50.99
2023-01-07T14:35:54.812Z,51.34
2023-01-07T14:38:30.453Z,51.32
2023-01-07T14:41:02.965Z,51.00
2023-01-07T14:43:47.675Z,51.09
2023-01-07T14:46:23.314Z,51.58
2023-01-07T14:49:01.973Z,51.15
2023-01-07T14:51:47.252Z,51.40
2023-01-07T14:54:46.430Z,51.52
2023-01-07T14:57:36.031Z,51.62
2023-01-07T15:00:42.893Z,51.64
2023-01-07T15:03:09.286Z,51.57
2023-01-07T15:05:53.187Z,51.60
2023-01-07T15:08:42.064Z,51.85
2023-01-07T15:11:39.543Z,51.77
2023-01-07T15:14:36.823Z,51.95
2023-01-07T15:17:03.948Z,51.97
2023-01-07T15:19:30.580Z,51.76
2023-01-07T15:22:25.507Z,52.17
2023-01-07T15:25:13.365Z,52.08
2023-01-07T15:28:04.333Z,52.13
2023-01-07T15:30:44.022Z,51.84
2023-01-07T15:33:34.573Z,51.94
2023-01-07T15:36:03.860Z,52.14
2023-01-07T15:38:44.385Z,52.23
2023-01-07T15:41:40.599Z,51.93
2023-01-07T15:44:17.528Z,52.40
2023-01-07T15:46:44.448Z,52.18
2023-01-07T15:49:11.034Z,52.15
2023-01-07T15:51:43.078Z,52.58
2023-01-07T15:54:25.854Z,52.59
2023-01-07T15:56:55.654Z,52.48
2023-01-07T15:59:31.136Z,52.52
2023-01-07T16:02:22.142Z,52.54
2023-01-07T16:04:52.056Z,52.45
2023-01-07T16:07:23.342Z,52.91
2023-01-07T16:09:50.838Z,52.76
2023-01-07T16:12:36.229Z,52.67
2023-01-07T16:15:25.521Z,52.68
2023-01-07T16:17:52.811Z,52.57
2023-01-07T16:20:23.357Z,52.58
2023-01-07T16:22:50.678Z,53.08
2023-01-07T16:25:24.799Z,52.95
2023-01-07T16:27:51.667Z,52.84
2023-01-07T16:30:18.683Z,53.10
2023-01-07T16:32:46.237Z,52.79
2023-01-07T16:35:25.782Z,52.71
2023-01-07T16:37:53.752Z,52.74
2023-01-07T16:40:31.155Z,52.84
2023-01-07T16:42:57.664Z,53.09
2023-01-07T16:45:27.067Z,53.43
2023-01-07T16:48:19.903Z,53.16
2023-01-07T16:50:48.074Z,53.32
2023-01-07T16:53:33.543Z,53.63
2023-01-07T16:56:13.098Z,53.58
2023-01-07T16:58:53.001Z,53.54
2023-01-07T17:01:33.672Z,53.66
2023-01-07T17:04:07.229Z,53.40
2023-01-07T17:06:42.244Z,53.65
2023-01-07T17:09:35.403Z,54.07
2023-01-07T17:12:03.018Z,53.57
2023-01-07T17:14:38.190Z,53.68
2023-01-07T17:17:16.582Z,54.04
2023-01-07T17:20:12.289Z,54.29
2023-01-07T17:22:39.797Z,54.25
2023-01-07T17:25:28.307Z,54.36
2023-01-07T17:28:01.015Z,53.90
2023-01-07T17:30:36.002Z,54.46
2023-01-07T17:33:03.180Z,54.39
2023-01-07T17:35:29.870Z,54.51
2023-01-07T17:37:56.872Z,54.84
2023-01-07T17:40:23.397Z,54.99
2023-01-07T17:43:08.933Z,54.99
2023-01-07T17:45:35.481Z,55.17
2023-01-07T17:48:02.321Z,55.19
2023-01-07T17:50:36.079Z,55.33
2023-01-07T17:53:04.356Z,55.56
2023-01-07T17:55:35.543Z,55.74
2023-01-07T17:58:02.035Z,55.74
2023-01-07T18:00:31.145Z,55.67
2023-01-07T18:02:58.185Z,55.52
2023-01-07T18:05:26.242Z,56.03
2023-01-07T18:07:53.031Z,55.87
2023-01-07T18:10:28.715Z,56.24
2023-01-07T18:12:55.419Z,56.22
2023-01-07T18:15:25.486Z,56.00
2023-01-07T18:17:52.572Z,56.04
2023-01-07T18:20:21.291Z,55.99
2023-01-07T18:22:48.801Z,56.30
2023-01-07T18:25:18.234Z,55.97
2023-01-07T18:27:45.130Z,56.58
2023-01-07T18:30:15.240Z,56.32
2023-01-07T18:32:42.284Z,56.41
2023-01-07T18:35:09.816Z,56.47
2023-01-07T18:37:36.774Z,56.57
2023-01-07T18:40:05.411Z,56.32
2023-01-07T18:42:34.281Z,56.47
2023-01-07T18:45:01.775Z,56.64
2023-01-07T18:47:28.265Z,56.43
2023-01-07T18:49:54.898Z,56.77
2023-01-07T18:52:21.441Z,56.37
2023-01-07T18:54:48.213Z,56.40
2023-01-07T18:57:14.819Z,56.54
2023-01-07T18:59:41.648Z,56.63
2023-01-07T19:02:17.776Z,56.33
2023-01-07T19:04:44.480Z,56.49
2023-01-07T19:07:11.193Z,56.64
2023-01-07T19:09:37.846Z,56.64
2023-01-07T19:12:05.983Z,56.48
2023-01-07T19:14:34.182Z,56.67
2023-01-07T19:17:00.791Z,56.48
2023-01-07T19:19:32.032Z,56.55
2023-01-07T19:22:00.959Z,56.66
2023-01-07T19:24:27.479Z,56.83
2023-01-07T19:26:54.015Z,56.20
2023-01-07T19:29:20.667Z,56.34
2023-01-07T19:31:47.407Z,56.62
2023-01-07T19:34:14.949Z,56.46
2023-01-07T19:36:46.490Z,56.59
2023-01-07T19:39:16.910Z,56.58
2023-01-07T19:41:44.111Z,56.47
2023-01-07T19:44:11.436Z,56.15
2023-01-07T19:46:40.451Z,56.53
2023-01-07T19:49:07.893Z,56.31
2023-01-07T19:51:36.041Z,56.06
2023-01-07T19:54:03.270Z,56.25
2023-01-07T19:56:30.888Z,56.42
2023-01-07T19:58:59.046Z,56.17
2023-01-07T20:01:28.270Z,56.36
2023-01-07T20:03:57.126Z,56.37
2023-01-07T20:06:29.161Z,56.30
2023-01-07T20:08:58.098Z,56.46
2023-01-07T20:11:25.640Z,56.30
2023-01-07T20:13:52.190Z,56.38
2023-01-07T20:16:23.987Z,56.58
2023-01-07T20:18:52.982Z,56.22
2023-01-07T20:21:21.957Z,56.56
2023-01-07T20:23:48.800Z,56.70
2023-01-07T20:26:20.275Z,56.44
2023-01-07T20:28:47.371Z,56.87
2023-01-07T20:31:15.841Z,56.64
2023-01-07T20:33:43.258Z,56.80
2023-01-07T20:36:14.314Z,56.60
2023-01-07T20:38:42.072Z,56.89
2023-01-07T20:41:12.890Z,56.95
2023-01-07T20:43:39.375Z,57.08
2023-01-07T20:46:07.605Z,57.43
2023-01-07T20:48:35.029Z,57.01
2023-01-07T20:51:08.685Z,56.99
2023-01-07T20:53:37.111Z,57.37
2023-01-07T20:56:05.103Z,57.03
2023-01-07T20:58:34.003Z,57.32
2023-01-07T21:01:22.499Z,57.49
2023-01-07T21:03:49.426Z,57.48
2023-01-07T21:06:17.940Z,57.46
2023-01-07T21:08:46.408Z,57.11
2023-01-07T21:11:15.570Z,57.39
2023-01-07T21:13:42.669Z,57.16
2023-01-07T21:16:10.025Z,57.13
2023-01-07T21:18:36.625Z,57.44
2023-01-07T21:21:10.230Z,57.52
2023-01-07T21:23:36.836Z,57.48
2023-01-07T21:26:03.485Z,57.53
2023-01-07T21:28:30.001Z,57.80
2023-01-07T21:31:00.905Z,57.44
2023-01-07T21:33:27.430Z,57.72
2023-01-07T21:35:53.972Z,57.72
2023-01-07T21:38:20.459Z,57.78
2023-01-07T21:40:47.014Z,57.78
2023-01-07T21:43:13.521Z,57.52
2023-01-07T21:45:40.257Z,57.60
2023-01-07T21:48:06.883Z,58.01
2023-01-07T21:50:33.407Z,57.91
2023-01-07T21:52:59.986Z,57.73
2023-01-07T21:55:26.473Z,57.67
2023-01-07T21:57:52.957Z,57.97
2023-01-07T22:00:19.591Z,58.05
2023-01-07T22:02:46.188Z,57.92
2023-01-07T22:05:12.798Z,57.86
2023-01-07T22:07:39.441Z,58.03
2023-01-07T22:10:06.387Z,58.24
2023-01-07T22:12:33.014Z,58.36
2023-01-07T22:14:59.567Z,58.28
2023-01-07T22:17:26.757Z,58.67
2023-01-07T22:19:53.345Z,58.33
2023-01-07T22:22:20.909Z,58.80
2023-01-07T22:24:47.607Z,58.49
2023-01-07T22:27:14.634Z,58.79
2023-01-07T22:29:42.311Z,58.90
2023-01-07T22:32:09.017Z,58.62
2023-01-07T22:34:35.635Z,58.85
2023-01-07T22:37:10.729Z,58.75
2023-01-07T22:39:53.672Z,58.94
2023-01-07T22:42:30.543Z,59.09
2023-01-07T22:45:02.699Z,59.30
2023-01-07T22:47:34.923Z,59.26
2023-01-07T22:50:03.906Z,59.17
2023-01-07T22:52:30.633Z,58.91
2023-01-07T22:54:58.157Z,58.92
2023-01-07T22:57:25.275Z,59.14
2023-01-07T22:59:51.791Z,59.29
2023-01-07T23:02:18.342Z,59.46
2023-01-07T23:04:44.846Z,59.27
2023-01-07T23:07:11.422Z,59.25
2023-01-07T23:09:37.968Z,59.40
2023-01-07T23:12:04.568Z,59.28
2023-01-07T23:14:32.408Z,59.01
2023-01-07T23:16:59.504Z,59.17
2023-01-07T23:19:26.116Z,58.93
2023-01-07T23:21:54.167Z,59.09
2023-01-07T23:24:21.774Z,59.16
2023-01-07T23:26:52.132Z,59.14
2023-01-07T23:29:19.025Z,59.44
2023-01-07T23:31:45.793Z,59.03
2023-01-07T23:34:14.097Z,59.04
2023-01-07T23:36:40.665Z,58.98
2023-01-07T23:39:07.330Z,59.13
2023-01-07T23:41:33.869Z,59.11
2023-01-07T23:44:00.432Z,58.90
2023-01-07T23:46:27.027Z,59.37
2023-01-07T23:48:53.561Z,58.89
2023-01-07T23:51:21.153Z,59.31
2023-01-07T23:53:48.629Z,59.34
2023-01-07T23:56:18.898Z,59.11
2023-01-07T23:58:45.477Z,59.07
